Time;durP1;ratioP1;P1;durP2;ratioP2;P2;SDS_P1;SDS_P2;PMS_P1;PMS_P2;Temp;Humidity;BMP_temperature;BMP_pressure;BME280_temperature;BME280_humidity;BME280_pressure;Samples;Min_cycle;Max_cycle;Signal;HPM_P1;HPM_P2
2023/04/23 00:00:00;;;;;;;51.72;21.73;;;;;;;;;;5066213;28;20027;-58
2023/04/23 00:02:28;;;;;;;48.88;21.88;;;;;;;;;;5066231;28;21089;-58
2023/04/23 00:04:56;;;;;;;46.03;21.45;;;;;;;;;;5066022;28;20101;-59
2023/04/23 00:07:22;;;;;;;43.38;21.58;;;;;;;;;;5066364;28;20134;-60
2023/04/23 00:09:48;;;;;;;48.58;21.88;;;;;;;;;;5065984;28;20021;-59
2023/04/23 00:12:14;;;;;;;35.40;19.45;;;;;;;;;;5065771;28;20522;-58
2023/04/23 00:14:39;;;;;;;47.03;21.02;;;;;;;;;;5064563;28;20339;-59
2023/04/23 00:17:05;;;;;;;43.95;19.88;;;;;;;;;;5065523;28;20379;-59
2023/04/23 00:19:30;;;;;;;37.95;18.80;;;;;;;;;;5065909;28;20047;-60
2023/04/23 00:21:55;;;;;;;46.42;19.73;;;;;;;;;;5066012;28;20427;-57
2023/04/23 00:24:21;;;;;;;35.13;17.90;;;;;;;;;;5065458;28;20154;-59
2023/04/23 00:26:46;;;;;;;37.67;18.38;;;;;;;;;;5065677;28;20365;-59
2023/04/23 00:29:11;;;;;;;43.85;20.42;;;;;;;;;;5066031;28;20025;-59
2023/04/23 00:31:37;;;;;;;55.03;21.77;;;;;;;;;;5065668;28;20243;-58
2023/04/23 00:34:02;;;;;;;45.63;21.90;;;;;;;;;;5065802;28;20020;-58
2023/04/23 00:36:28;;;;;;;45.80;19.85;;;;;;;;;;5065279;28;20700;-59
2023/04/23 00:38:53;;;;;;;41.05;21.48;;;;;;;;;;5065543;28;20016;-59
2023/04/23 00:41:18;;;;;;;41.13;18.35;;;;;;;;;;5065260;28;20027;-59
2023/04/23 00:43:44;;;;;;;43.45;20.55;;;;;;;;;;5065460;28;20024;-60
2023/04/23 00:46:10;;;;;;;44.83;19.83;;;;;;;;;;5065363;28;20360;-61
2023/04/23 00:48:35;;;;;;;41.90;19.75;;;;;;;;;;5065438;28;20081;-59
2023/04/23 00:51:04;;;;;;;42.80;19.88;;;;;;;;;;5065414;28;20419;-57
2023/04/23 00:53:30;;;;;;;43.30;18.13;;;;;;;;;;5064872;28;20460;-60
2023/04/23 00:55:55;;;;;;;47.72;21.42;;;;;;;;;;5065090;28;20103;-59
2023/04/23 00:58:21;;;;;;;44.78;19.50;;;;;;;;;;5065087;28;20104;-60
2023/04/23 01:00:47;;;;;;;485.55;177.68;;;;;;;;;;5064844;28;20031;-56
2023/04/23 01:03:14;;;;;;;416.20;132.90;;;;;;;;;;5065040;28;20052;-58
2023/04/23 01:05:42;;;;;;;38.90;18.83;;;;;;;;;;5064984;28;20286;-59
2023/04/23 01:08:09;;;;;;;32.13;17.08;;;;;;;;;;5065044;28;20028;-58
2023/04/23 01:10:34;;;;;;;33.80;17.27;;;;;;;;;;5063389;28;20025;-58
2023/04/23 01:12:59;;;;;;;33.90;18.20;;;;;;;;;;5064650;28;20462;-58
2023/04/23 01:15:25;;;;;;;35.80;18.20;;;;;;;;;;5064635;28;20108;-60
2023/04/23 01:17:52;;;;;;;34.67;18.25;;;;;;;;;;5064901;28;20095;-57
2023/04/23 01:20:17;;;;;;;36.03;18.55;;;;;;;;;;5064630;28;20025;-59
2023/04/23 01:22:43;;;;;;;30.88;16.73;;;;;;;;;;5064414;28;20020;-59
2023/04/23 01:25:09;;;;;;;38.75;19.27;;;;;;;;;;5064386;28;20025;-57
2023/04/23 01:27:34;;;;;;;42.00;18.45;;;;;;;;;;5063219;28;20028;-58
2023/04/23 01:30:02;;;;;;;27.80;16.42;;;;;;;;;;5064391;28;20012;-59
2023/04/23 01:32:27;;;;;;;35.15;16.95;;;;;;;;;;5064743;28;20070;-59
2023/04/23 01:34:53;;;;;;;42.85;17.92;;;;;;;;;;5064113;28;20036;-59
2023/04/23 01:37:18;;;;;;;34.22;16.67;;;;;;;;;;5064162;28;20387;-59
2023/04/23 01:39:44;;;;;;;32.38;16.23;;;;;;;;;;5064487;28;20021;-58
2023/04/23 01:42:09;;;;;;;34.28;16.83;;;;;;;;;;5064346;28;20020;-60
2023/04/23 01:44:35;;;;;;;36.42;16.65;;;;;;;;;;5064491;28;20028;-59
2023/04/23 01:47:00;;;;;;;38.72;17.38;;;;;;;;;;5064157;28;20044;-59
2023/04/23 01:49:26;;;;;;;33.58;17.63;;;;;;;;;;5064560;28;20427;-58
2023/04/23 01:51:51;;;;;;;37.03;17.50;;;;;;;;;;5064198;28;20349;-59
2023/04/23 01:54:16;;;;;;;32.00;17.35;;;;;;;;;;5064780;28;20025;-59
2023/04/23 01:56:42;;;;;;;45.33;17.85;;;;;;;;;;5063083;28;20071;-59
2023/04/23 01:59:07;;;;;;;32.38;17.63;;;;;;;;;;5064690;28;20124;-58
2023/04/23 02:01:43;;;;;;;34.85;17.38;;;;;;;;;;5064593;28;20085;-55
2023/04/23 02:04:09;;;;;;;37.47;17.08;;;;;;;;;;5063985;28;20035;-58
2023/04/23 02:06:34;;;;;;;34.90;17.33;;;;;;;;;;5062596;28;20480;-55
2023/04/23 02:08:59;;;;;;;36.38;17.63;;;;;;;;;;5063952;28;20028;-59
2023/04/23 02:11:25;;;;;;;31.77;16.35;;;;;;;;;;5063969;28;20599;-60
2023/04/23 02:13:50;;;;;;;34.38;16.63;;;;;;;;;;5065452;28;20032;-58
2023/04/23 02:16:15;;;;;;;40.30;16.35;;;;;;;;;;5068135;28;20031;-57
2023/04/23 02:18:41;;;;;;;28.58;16.73;;;;;;;;;;5067979;28;20507;-55
2023/04/23 02:21:06;;;;;;;30.55;16.95;;;;;;;;;;5068007;28;20492;-59
2023/04/23 02:23:32;;;;;;;29.48;16.83;;;;;;;;;;5068414;28;20029;-59
2023/04/23 02:25:57;;;;;;;36.85;17.45;;;;;;;;;;5068000;28;20032;-59
2023/04/23 02:28:22;;;;;;;37.47;16.40;;;;;;;;;;5065363;28;20042;-60
2023/04/23 02:30:47;;;;;;;37.88;16.50;;;;;;;;;;5068100;28;20016;-58
2023/04/23 02:33:13;;;;;;;36.03;17.48;;;;;;;;;;5067885;28;20452;-58
2023/04/23 02:35:38;;;;;;;41.03;19.00;;;;;;;;;;5067186;28;20050;-60
2023/04/23 02:38:03;;;;;;;35.53;17.30;;;;;;;;;;5067247;28;20032;-59
2023/04/23 02:40:29;;;;;;;40.42;17.80;;;;;;;;;;5067615;28;20053;-58
2023/04/23 02:42:54;;;;;;;34.55;18.23;;;;;;;;;;5067693;28;20008;-57
2023/04/23 02:45:20;;;;;;;37.85;16.58;;;;;;;;;;5064768;28;20032;-58
2023/04/23 02:47:45;;;;;;;34.28;18.48;;;;;;;;;;5067589;28;20016;-58
2023/04/23 02:50:10;;;;;;;32.65;16.48;;;;;;;;;;5067555;28;20251;-59
2023/04/23 02:52:36;;;;;;;37.33;16.65;;;;;;;;;;5068288;28;20024;-59
2023/04/23 02:55:02;;;;;;;31.70;16.67;;;;;;;;;;5067427;28;20112;-60
2023/04/23 02:57:27;;;;;;;34.95;16.48;;;;;;;;;;5067143;28;20020;-57
2023/04/23 02:59:53;;;;;;;30.30;16.83;;;;;;;;;;5067292;28;20067;-59
2023/04/23 03:02:18;;;;;;;31.65;16.35;;;;;;;;;;5067685;28;20460;-58
2023/04/23 03:04:44;;;;;;;35.30;16.92;;;;;;;;;;5067274;28;20016;-59
2023/04/23 03:07:09;;;;;;;34.15;17.30;;;;;;;;;;5067210;28;20522;-58
2023/04/23 03:09:34;;;;;;;34.05;16.25;;;;;;;;;;5065935;28;20040;-59
2023/04/23 03:12:01;;;;;;;35.05;16.63;;;;;;;;;;5066074;28;20040;-59
2023/04/23 03:14:26;;;;;;;33.63;14.80;;;;;;;;;;5065645;28;20016;-59
2023/04/23 03:16:51;;;;;;;25.02;14.30;;;;;;;;;;5066114;28;20033;-59
2023/04/23 03:19:17;;;;;;;28.33;15.63;;;;;;;;;;5065559;28;20048;-58
2023/04/23 03:21:42;;;;;;;34.92;14.38;;;;;;;;;;5065885;28;20391;-57
2023/04/23 03:24:07;;;;;;;28.63;14.43;;;;;;;;;;5065252;28;20483;-58
2023/04/23 03:26:33;;;;;;;28.95;14.32;;;;;;;;;;5065656;28;20039;-58
2023/04/23 03:28:59;;;;;;;28.88;13.77;;;;;;;;;;5065957;28;20032;-57
2023/04/23 03:31:24;;;;;;;23.13;12.45;;;;;;;;;;5065915;28;20021;-59
2023/04/23 03:33:49;;;;;;;25.85;12.82;;;;;;;;;;5065485;28;20024;-55
2023/04/23 03:36:15;;;;;;;24.20;13.43;;;;;;;;;;5065438;28;20122;-58
2023/04/23 03:38:40;;;;;;;24.50;13.48;;;;;;;;;;5065680;28;20021;-60
2023/04/23 03:41:05;;;;;;;22.08;13.68;;;;;;;;;;5065653;28;20021;-59
2023/04/23 03:43:30;;;;;;;25.95;13.57;;;;;;;;;;5063406;28;20136;-60
2023/04/23 03:45:56;;;;;;;26.35;14.00;;;;;;;;;;5065640;28;20526;-59
2023/04/23 03:48:21;;;;;;;25.70;13.93;;;;;;;;;;5065831;28;20017;-60
2023/04/23 03:50:46;;;;;;;30.73;14.75;;;;;;;;;;5065634;28;20460;-57
2023/04/23 03:53:12;;;;;;;24.63;13.82;;;;;;;;;;5065584;28;20021;-59
2023/04/23 03:55:37;;;;;;;21.77;12.80;;;;;;;;;;5065072;28;20537;-58
2023/04/23 03:58:02;;;;;;;23.98;12.30;;;;;;;;;;5064206;28;20024;-60
2023/04/23 04:00:28;;;;;;;26.80;13.52;;;;;;;;;;5065758;28;20048;-58
2023/04/23 04:02:53;;;;;;;22.35;12.55;;;;;;;;;;5065616;28;20021;-58
2023/04/23 04:05:18;;;;;;;26.85;13.73;;;;;;;;;;5065179;28;20044;-60
2023/04/23 04:07:44;;;;;;;28.65;13.82;;;;;;;;;;5065231;28;20071;-58
2023/04/23 04:10:09;;;;;;;31.73;14.40;;;;;;;;;;5065475;28;20372;-59
2023/04/23 04:12:35;;;;;;;31.27;14.27;;;;;;;;;;5023063;28;1223577;-59
2023/04/23 04:15:02;;;;;;;28.92;14.68;;;;;;;;;;5066584;28;20032;-59
2023/04/23 04:17:27;;;;;;;27.13;13.52;;;;;;;;;;5064414;28;20046;-57
2023/04/23 04:19:52;;;;;;;33.20;15.60;;;;;;;;;;5065919;28;20488;-57
2023/04/23 04:22:18;;;;;;;23.40;13.30;;;;;;;;;;5066071;28;20020;-58
2023/04/23 04:24:43;;;;;;;30.98;14.27;;;;;;;;;;5064965;28;20017;-59
2023/04/23 04:27:08;;;;;;;26.40;14.20;;;;;;;;;;5065890;28;20043;-58
2023/04/23 04:29:34;;;;;;;26.25;12.63;;;;;;;;;;5066222;28;20012;-60
2023/04/23 04:32:00;;;;;;;36.05;16.40;;;;;;;;;;5065946;28;20081;-59
2023/04/23 04:34:25;;;;;;;41.03;19.10;;;;;;;;;;5065769;28;20020;-57
2023/04/23 04:36:52;;;;;;;47.60;21.00;;;;;;;;;;5064911;28;20478;-57
2023/04/23 04:39:18;;;;;;;50.88;21.75;;;;;;;;;;5065800;28;20108;-59
2023/04/23 04:41:44;;;;;;;51.78;23.92;;;;;;;;;;5065544;28;20372;-57
2023/04/23 04:44:09;;;;;;;63.95;28.23;;;;;;;;;;5066042;28;20024;-59
2023/04/23 04:46:39;;;;;;;64.13;27.35;;;;;;;;;;5065562;28;20029;-59
2023/04/23 04:49:11;;;;;;;50.28;22.55;;;;;;;;;;5065714;28;20016;-58
2023/04/23 04:51:36;;;;;;;40.08;19.35;;;;;;;;;;5065907;28;20043;-57
2023/04/23 04:54:02;;;;;;;42.92;19.50;;;;;;;;;;5065459;28;20020;-59
2023/04/23 04:56:27;;;;;;;46.75;19.42;;;;;;;;;;5065043;28;20085;-60
2023/04/23 04:58:52;;;;;;;41.53;20.05;;;;;;;;;;5065370;28;20020;-57
2023/04/23 05:01:19;;;;;;;35.92;17.60;;;;;;;;;;5065232;28;20033;-59
2023/04/23 05:03:44;;;;;;;36.28;16.30;;;;;;;;;;5065241;28;20063;-58
2023/04/23 05:06:10;;;;;;;30.40;15.63;;;;;;;;;;5064877;28;20071;-57
2023/04/23 05:08:35;;;;;;;28.58;15.13;;;;;;;;;;5065408;28;20037;-60
2023/04/23 05:11:01;;;;;;;30.70;15.57;;;;;;;;;;5065173;28;20535;-58
2023/04/23 05:13:26;;;;;;;28.13;14.90;;;;;;;;;;5065187;28;20395;-60
2023/04/23 05:15:51;;;;;;;29.85;14.73;;;;;;;;;;5065393;28;20059;-60
2023/04/23 05:18:17;;;;;;;33.70;15.10;;;;;;;;;;5065393;28;20035;-59
2023/04/23 05:20:42;;;;;;;29.52;15.75;;;;;;;;;;5065793;28;20027;-57
2023/04/23 05:23:07;;;;;;;38.42;17.75;;;;;;;;;;5062560;28;20563;-57
2023/04/23 05:25:34;;;;;;;33.85;14.18;;;;;;;;;;5064928;28;20594;-59
2023/04/23 05:27:59;;;;;;;40.20;16.45;;;;;;;;;;5064875;28;20388;-57
2023/04/23 05:30:25;;;;;;;34.47;16.25;;;;;;;;;;5064898;28;20031;-58
2023/04/23 05:32:50;;;;;;;32.22;15.98;;;;;;;;;;5065336;28;20027;-59
2023/04/23 05:35:15;;;;;;;27.38;13.68;;;;;;;;;;5064737;28;20339;-59
2023/04/23 05:37:41;;;;;;;29.58;16.40;;;;;;;;;;5064443;28;20670;-59
2023/04/23 05:40:06;;;;;;;28.45;15.50;;;;;;;;;;5064917;28;20021;-57
2023/04/23 05:42:33;;;;;;;35.05;14.82;;;;;;;;;;5062506;28;20032;-58
2023/04/23 05:44:58;;;;;;;24.48;14.77;;;;;;;;;;5064953;28;20056;-60
2023/04/23 05:47:23;;;;;;;26.02;15.20;;;;;;;;;;5064646;28;20091;-58
2023/04/23 05:49:49;;;;;;;23.95;13.57;;;;;;;;;;5064033;28;20054;-59
2023/04/23 05:52:14;;;;;;;27.50;14.57;;;;;;;;;;5064619;28;20023;-58
2023/04/23 05:54:40;;;;;;;21.75;14.65;;;;;;;;;;5064672;28;20027;-58
2023/04/23 05:57:05;;;;;;;25.83;12.95;;;;;;;;;;5064934;28;20031;-58
2023/04/23 05:59:30;;;;;;;23.77;14.60;;;;;;;;;;5064604;28;20013;-58
2023/04/23 06:01:56;;;;;;;28.98;14.13;;;;;;;;;;5064735;28;20596;-58
2023/04/23 06:04:21;;;;;;;20.80;12.93;;;;;;;;;;5064762;28;20020;-59
2023/04/23 06:06:46;;;;;;;25.20;12.43;;;;;;;;;;5061673;28;20041;-58
2023/04/23 06:09:11;;;;;;;18.35;9.40;;;;;;;;;;5064655;28;20256;-58
2023/04/23 06:11:37;;;;;;;19.70;8.97;;;;;;;;;;5064313;28;20048;-59
2023/04/23 06:14:02;;;;;;;20.95;8.98;;;;;;;;;;5064851;28;20261;-58
2023/04/23 06:16:28;;;;;;;17.35;8.73;;;;;;;;;;5064664;28;20021;-58
2023/04/23 06:18:55;;;;;;;13.60;8.27;;;;;;;;;;5064601;28;20019;-58
2023/04/23 06:21:20;;;;;;;14.07;8.07;;;;;;;;;;5064641;28;20082;-59
2023/04/23 06:23:45;;;;;;;16.30;8.45;;;;;;;;;;5079002;28;20534;-59
2023/04/23 06:26:11;;;;;;;12.27;8.17;;;;;;;;;;5064654;28;20025;-58
2023/04/23 06:28:37;;;;;;;14.88;8.70;;;;;;;;;;5064593;28;20242;-58
2023/04/23 06:31:04;;;;;;;15.65;8.40;;;;;;;;;;5064336;28;20155;-58
2023/04/23 06:33:29;;;;;;;13.13;8.07;;;;;;;;;;5065019;28;20539;-59
2023/04/23 06:35:55;;;;;;;11.20;8.30;;;;;;;;;;5064438;28;20135;-58
2023/04/23 06:38:21;;;;;;;15.52;7.93;;;;;;;;;;5063959;28;20012;-58
2023/04/23 06:40:47;;;;;;;14.80;7.28;;;;;;;;;;5063312;28;20043;-59
2023/04/23 06:43:13;;;;;;;11.68;6.95;;;;;;;;;;5064264;28;20029;-59
2023/04/23 06:45:39;;;;;;;13.50;7.43;;;;;;;;;;5064148;28;20134;-59
2023/04/23 06:48:04;;;;;;;12.98;7.00;;;;;;;;;;5064000;28;20048;-59
2023/04/23 06:50:30;;;;;;;13.70;6.75;;;;;;;;;;5064084;28;20021;-56
2023/04/23 06:52:55;;;;;;;12.20;6.50;;;;;;;;;;5063836;28;20392;-58
2023/04/23 06:55:24;;;;;;;13.65;6.43;;;;;;;;;;5064065;28;20016;-58
2023/04/23 06:57:50;;;;;;;12.77;6.50;;;;;;;;;;5064165;28;20526;-59
2023/04/23 07:00:15;;;;;;;8.32;5.47;;;;;;;;;;5065494;28;20017;-58
2023/04/23 07:02:40;;;;;;;12.52;5.47;;;;;;;;;;5048090;28;20052;-57
2023/04/23 07:05:06;;;;;;;12.60;6.47;;;;;;;;;;5067470;28;20013;-56
2023/04/23 07:07:31;;;;;;;12.55;6.05;;;;;;;;;;5067132;28;20763;-56
2023/04/23 07:09:56;;;;;;;16.77;6.10;;;;;;;;;;5067023;28;20024;-60
2023/04/23 07:12:22;;;;;;;9.60;5.05;;;;;;;;;;5067112;28;20075;-57
2023/04/23 07:14:47;;;;;;;7.13;5.05;;;;;;;;;;5067515;28;20028;-60
2023/04/23 07:17:12;;;;;;;8.38;5.15;;;;;;;;;;5067045;28;20028;-58
2023/04/23 07:19:38;;;;;;;7.07;4.80;;;;;;;;;;5067248;28;20017;-59
2023/04/23 07:22:03;;;;;;;7.80;4.97;;;;;;;;;;5066767;28;20020;-59
2023/04/23 07:24:28;;;;;;;7.30;4.55;;;;;;;;;;5047913;28;20263;-62
2023/04/23 07:26:54;;;;;;;12.03;4.73;;;;;;;;;;5067147;28;20029;-59
2023/04/23 07:29:19;;;;;;;6.78;4.95;;;;;;;;;;5067466;28;20257;-57
2023/04/23 07:31:45;;;;;;;9.48;4.85;;;;;;;;;;5067122;28;20024;-59
2023/04/23 07:34:10;;;;;;;9.90;5.35;;;;;;;;;;5066944;28;20024;-59
2023/04/23 07:36:35;;;;;;;8.55;5.00;;;;;;;;;;5066870;28;20032;-58
2023/04/23 07:39:01;;;;;;;9.73;5.32;;;;;;;;;;5066872;28;20056;-59
2023/04/23 07:41:26;;;;;;;6.43;4.53;;;;;;;;;;5066784;28;20055;-58
2023/04/23 07:43:51;;;;;;;9.43;5.38;;;;;;;;;;5066443;28;20029;-58
2023/04/23 07:46:17;;;;;;;6.57;4.50;;;;;;;;;;5066849;28;20426;-59
2023/04/23 07:48:42;;;;;;;11.65;5.38;;;;;;;;;;5066707;28;20024;-56
2023/04/23 07:51:08;;;;;;;15.93;6.15;;;;;;;;;;5066597;28;20070;-59
2023/04/23 07:53:33;;;;;;;14.45;5.00;;;;;;;;;;5066462;28;20111;-58
2023/04/23 07:55:59;;;;;;;13.10;5.63;;;;;;;;;;5066507;28;20021;-59
2023/04/23 07:58:24;;;;;;;14.40;5.72;;;;;;;;;;5066583;28;20460;-59
2023/04/23 08:00:50;;;;;;;11.75;5.80;;;;;;;;;;5066567;28;20243;-58
2023/04/23 08:03:15;;;;;;;8.98;5.32;;;;;;;;;;5098752;28;20021;-59
2023/04/23 08:05:41;;;;;;;6.43;4.70;;;;;;;;;;5065998;28;20044;-59
2023/04/23 08:08:07;;;;;;;8.60;5.15;;;;;;;;;;5066151;28;20035;-57
2023/04/23 08:10:32;;;;;;;6.60;4.70;;;;;;;;;;5063763;28;20024;-60
2023/04/23 08:12:58;;;;;;;11.98;5.07;;;;;;;;;;5066151;28;20024;-59
2023/04/23 08:15:23;;;;;;;7.32;5.18;;;;;;;;;;5066090;28;20027;-59
2023/04/23 08:17:48;;;;;;;8.30;6.23;;;;;;;;;;5066160;28;20032;-60
2023/04/23 08:20:14;;;;;;;6.57;4.33;;;;;;;;;;5066144;28;20621;-59
2023/04/23 08:22:39;;;;;;;10.43;4.43;;;;;;;;;;5066012;28;20249;-59
2023/04/23 08:25:04;;;;;;;16.67;4.93;;;;;;;;;;5065835;28;20022;-59
2023/04/23 08:27:30;;;;;;;8.20;5.50;;;;;;;;;;5065649;28;20139;-58
2023/04/23 08:29:55;;;;;;;6.63;4.30;;;;;;;;;;5066030;28;20028;-59
2023/04/23 08:32:20;;;;;;;9.63;4.43;;;;;;;;;;5065882;28;20242;-57
2023/04/23 08:34:46;;;;;;;9.82;4.45;;;;;;;;;;5065301;28;20249;-58
2023/04/23 08:37:11;;;;;;;8.50;4.23;;;;;;;;;;5065867;28;20024;-58
2023/04/23 08:39:36;;;;;;;6.47;3.47;;;;;;;;;;5065898;28;20606;-59
2023/04/23 08:42:10;;;;;;;11.32;4.82;;;;;;;;;;5065774;28;20565;-59
2023/04/23 08:44:36;;;;;;;8.55;4.20;;;;;;;;;;5065689;28;20028;-58
2023/04/23 08:47:03;;;;;;;8.27;4.10;;;;;;;;;;5065523;28;20033;-58
2023/04/23 08:49:31;;;;;;;5.82;3.80;;;;;;;;;;5065655;28;20384;-60
2023/04/23 08:52:00;;;;;;;5.30;3.70;;;;;;;;;;5065478;28;20081;-59
2023/04/23 08:54:28;;;;;;;;;;;;;;;;;;5065558;28;20017;-59
2023/04/23 08:56:57;;;;;;;10.48;4.93;;;;;;;;;;5065448;28;19911;-58
2023/04/23 08:59:22;;;;;;;8.07;3.58;;;;;;;;;;5065565;28;20300;-59
2023/04/23 09:01:48;;;;;;;9.25;3.90;;;;;;;;;;5065501;28;20650;-59
2023/04/23 09:04:15;;;;;;;8.50;3.47;;;;;;;;;;5065767;28;20471;-60
2023/04/23 09:06:41;;;;;;;9.35;3.47;;;;;;;;;;5065159;28;20105;-59
2023/04/23 09:09:07;;;;;;;6.18;3.33;;;;;;;;;;5065216;28;20460;-59
2023/04/23 09:11:33;;;;;;;4.75;3.38;;;;;;;;;;5065296;28;20048;-59
2023/04/23 09:13:58;;;;;;;5.97;3.58;;;;;;;;;;5065270;28;20033;-57
2023/04/23 09:16:25;;;;;;;8.27;4.03;;;;;;;;;;5065250;28;20395;-57
2023/04/23 09:18:51;;;;;;;10.32;3.60;;;;;;;;;;5065086;28;20327;-58
2023/04/23 09:21:16;;;;;;;28.88;4.60;;;;;;;;;;5065467;28;20508;-59
2023/04/23 09:23:42;;;;;;;10.18;4.20;;;;;;;;;;5064811;28;20490;-57
2023/04/23 09:26:07;;;;;;;9.93;3.72;;;;;;;;;;5064762;28;20468;-56
2023/04/23 09:28:36;;;;;;;6.63;3.77;;;;;;;;;;5065157;28;20037;-60
2023/04/23 09:31:01;;;;;;;;;;;;;;;;;;5065504;28;20733;-57
2023/04/23 09:33:27;;;;;;;7.35;3.58;;;;;;;;;;5065303;28;19905;-59
2023/04/23 09:35:53;;;;;;;10.05;4.22;;;;;;;;;;5064986;28;20543;-59
2023/04/23 09:38:18;;;;;;;10.35;4.15;;;;;;;;;;5064797;28;20686;-59
2023/04/23 09:40:44;;;;;;;3.97;3.50;;;;;;;;;;5064752;28;20535;-59
2023/04/23 09:43:09;;;;;;;5.47;3.75;;;;;;;;;;5064879;28;20468;-59
2023/04/23 09:45:34;;;;;;;13.40;4.18;;;;;;;;;;5064723;28;20020;-59
2023/04/23 09:48:00;;;;;;;8.40;4.18;;;;;;;;;;5064841;28;20503;-59
2023/04/23 09:50:35;;;;;;;6.97;4.10;;;;;;;;;;5064632;28;20452;-58
2023/04/23 09:53:01;;;;;;;9.10;3.88;;;;;;;;;;5064794;28;20083;-59
2023/04/23 09:55:28;;;;;;;8.27;3.70;;;;;;;;;;5064571;28;20460;-57
2023/04/23 09:57:53;;;;;;;5.95;3.38;;;;;;;;;;5065105;28;20020;-59
2023/04/23 10:00:19;;;;;;;8.00;4.38;;;;;;;;;;5064727;28;20435;-59
2023/04/23 10:02:46;;;;;;;6.22;3.80;;;;;;;;;;5064899;28;20025;-58
2023/04/23 10:05:18;;;;;;;6.70;4.07;;;;;;;;;;5064427;28;20266;-59
2023/04/23 10:07:45;;;;;;;9.63;3.95;;;;;;;;;;5064501;28;20051;-59
2023/04/23 10:10:11;;;;;;;8.75;4.10;;;;;;;;;;5063056;28;20407;-59
2023/04/23 10:12:36;;;;;;;4.13;3.45;;;;;;;;;;5063990;28;20516;-58
2023/04/23 10:15:03;;;;;;;13.23;4.20;;;;;;;;;;5064547;28;20028;-59
2023/04/23 10:17:29;;;;;;;6.28;4.05;;;;;;;;;;5064599;28;20245;-59
2023/04/23 10:19:54;;;;;;;7.50;4.40;;;;;;;;;;5064675;28;20013;-58
2023/04/23 10:22:20;;;;;;;7.60;3.70;;;;;;;;;;5064052;28;20099;-60
2023/04/23 10:24:50;;;;;;;5.45;3.90;;;;;;;;;;5064635;28;20230;-59
2023/04/23 10:27:15;;;;;;;4.82;3.30;;;;;;;;;;5064335;28;20043;-60
2023/04/23 10:29:41;;;;;;;6.70;3.25;;;;;;;;;;5064207;28;20016;-56
2023/04/23 10:32:06;;;;;;;5.72;3.50;;;;;;;;;;5064524;28;20362;-59
2023/04/23 10:34:32;;;;;;;6.43;3.25;;;;;;;;;;5065026;28;20029;-57
2023/04/23 10:37:00;;;;;;;6.35;3.10;;;;;;;;;;5068094;28;20418;-59
2023/04/23 10:39:27;;;;;;;6.55;3.25;;;;;;;;;;5068188;28;20020;-59
2023/04/23 10:41:53;;;;;;;5.63;2.88;;;;;;;;;;5067831;28;20031;-59
2023/04/23 10:44:20;;;;;;;6.47;3.22;;;;;;;;;;5067847;28;20020;-58
2023/04/23 10:46:56;;;;;;;4.38;3.20;;;;;;;;;;5068239;28;20027;-60
2023/04/23 10:49:24;;;;;;;6.22;3.58;;;;;;;;;;5067803;28;20034;-60
2023/04/23 10:52:02;;;;;;;5.13;3.15;;;;;;;;;;5067744;28;20012;-59
2023/04/23 10:54:32;;;;;;;5.50;3.47;;;;;;;;;;5067405;28;20028;-59
2023/04/23 10:57:02;;;;;;;7.68;3.40;;;;;;;;;;5067652;28;20031;-59
2023/04/23 10:59:28;;;;;;;5.65;3.25;;;;;;;;;;5067712;28;20219;-60
2023/04/23 11:01:54;;;;;;;13.25;3.88;;;;;;;;;;5067574;28;20025;-59
2023/04/23 11:04:20;;;;;;;5.50;3.42;;;;;;;;;;5067579;28;20028;-60
2023/04/23 11:06:46;;;;;;;5.90;3.47;;;;;;;;;;5067291;28;20361;-59
2023/04/23 11:09:30;;;;;;;6.47;3.00;;;;;;;;;;5067047;28;20057;-59
2023/04/23 11:12:00;;;;;;;4.05;3.10;;;;;;;;;;5067404;28;20048;-59
2023/04/23 11:14:35;;;;;;;6.82;3.28;;;;;;;;;;5067216;28;20365;-59
2023/04/23 11:17:02;;;;;;;15.65;3.50;;;;;;;;;;5067715;28;20060;-60
2023/04/23 11:19:28;;;;;;;6.10;3.03;;;;;;;;;;5067441;28;20315;-59
2023/04/23 11:22:13;;;;;;;4.95;3.38;;;;;;;;;;5067084;28;20349;-59
2023/04/23 11:24:41;;;;;;;6.88;3.30;;;;;;;;;;5067403;28;20602;-60
2023/04/23 11:27:07;;;;;;;5.80;3.45;;;;;;;;;;5067266;28;20123;-60
2023/04/23 11:29:33;;;;;;;8.20;4.10;;;;;;;;;;5067242;28;20032;-60
2023/04/23 11:31:58;;;;;;;6.57;3.35;;;;;;;;;;5067211;28;20089;-60
2023/04/23 11:34:24;;;;;;;6.18;3.33;;;;;;;;;;5066772;28;20044;-58
2023/04/23 11:36:51;;;;;;;5.20;3.05;;;;;;;;;;5067393;28;20019;-59
2023/04/23 11:39:18;;;;;;;6.95;2.97;;;;;;;;;;5067247;28;20025;-57
2023/04/23 11:41:45;;;;;;;3.35;2.80;;;;;;;;;;5066736;28;20496;-60
2023/04/23 11:44:10;;;;;;;5.82;3.15;;;;;;;;;;5064406;28;20025;-59
2023/04/23 11:46:36;;;;;;;7.25;3.65;;;;;;;;;;5067109;28;20094;-59
2023/04/23 11:49:02;;;;;;;5.45;3.05;;;;;;;;;;5067361;28;20103;-60
2023/04/23 11:51:27;;;;;;;5.28;3.10;;;;;;;;;;5067165;28;20028;-57
2023/04/23 11:53:53;;;;;;;5.15;3.67;;;;;;;;;;5066892;28;20107;-59
2023/04/23 11:56:23;;;;;;;4.55;2.83;;;;;;;;;;5066789;28;20032;-60
2023/04/23 11:58:57;;;;;;;6.70;3.30;;;;;;;;;;5065448;28;20025;-60
2023/04/23 12:01:22;;;;;;;4.70;3.45;;;;;;;;;;5066926;28;20056;-59
2023/04/23 12:03:48;;;;;;;7.57;3.60;;;;;;;;;;5066133;28;20626;-59
2023/04/23 12:06:15;;;;;;;6.22;3.33;;;;;;;;;;5066275;28;20338;-59
2023/04/23 12:08:42;;;;;;;5.85;3.50;;;;;;;;;;5066398;28;20475;-59
2023/04/23 12:11:07;;;;;;;4.80;2.85;;;;;;;;;;5065152;28;20170;-60
2023/04/23 12:13:32;;;;;;;6.20;3.33;;;;;;;;;;5064690;28;20111;-59
2023/04/23 12:15:59;;;;;;;6.05;3.22;;;;;;;;;;5065184;28;20036;-59
2023/04/23 12:18:32;;;;;;;5.00;3.30;;;;;;;;;;5064733;28;20025;-59
2023/04/23 12:21:06;;;;;;;4.30;2.97;;;;;;;;;;5066158;28;20020;-60
2023/04/23 12:23:34;;;;;;;5.38;2.95;;;;;;;;;;5065504;28;20028;-60
2023/04/23 12:26:00;;;;;;;7.97;3.30;;;;;;;;;;5064828;28;20082;-60
2023/04/23 12:28:26;;;;;;;6.90;2.78;;;;;;;;;;5065990;28;20384;-60
2023/04/23 12:30:51;;;;;;;4.28;3.03;;;;;;;;;;5066304;28;20016;-59
2023/04/23 12:33:17;;;;;;;8.97;3.20;;;;;;;;;;5066106;28;20090;-60
2023/04/23 12:35:49;;;;;;;7.22;3.20;;;;;;;;;;5064605;28;20321;-60
2023/04/23 12:38:24;;;;;;;6.45;3.45;;;;;;;;;;5064810;28;20027;-59
2023/04/23 12:40:53;;;;;;;4.00;2.97;;;;;;;;;;5065035;28;20511;-58
2023/04/23 12:43:18;;;;;;;3.80;3.20;;;;;;;;;;5064685;28;20027;-60
2023/04/23 12:45:44;;;;;;;12.57;4.53;;;;;;;;;;5065075;28;20024;-62
2023/04/23 12:48:10;;;;;;;6.07;3.65;;;;;;;;;;5064400;28;20241;-60
2023/04/23 12:50:36;;;;;;;5.00;2.92;;;;;;;;;;5064771;28;20476;-60
2023/04/23 12:53:01;;;;;;;8.38;3.38;;;;;;;;;;5064314;28;20422;-59
2023/04/23 12:55:27;;;;;;;6.18;3.40;;;;;;;;;;5064214;28;20025;-59
2023/04/23 12:57:52;;;;;;;3.67;2.80;;;;;;;;;;5063243;28;20035;-58
2023/04/23 13:00:17;;;;;;;5.60;3.30;;;;;;;;;;5063613;28;20579;-60
2023/04/23 13:02:43;;;;;;;8.10;4.45;;;;;;;;;;5064499;28;20332;-58
2023/04/23 13:05:08;;;;;;;7.50;3.40;;;;;;;;;;5063950;28;20025;-60
2023/04/23 13:07:34;;;;;;;5.93;3.40;;;;;;;;;;5064042;28;20756;-59
2023/04/23 13:09:59;;;;;;;5.60;3.58;;;;;;;;;;5065291;28;20008;-60
2023/04/23 13:12:25;;;;;;;5.38;3.30;;;;;;;;;;5064742;28;20041;-58
2023/04/23 13:14:50;;;;;;;4.15;3.10;;;;;;;;;;5065068;28;20023;-60
2023/04/23 13:17:15;;;;;;;5.15;3.60;;;;;;;;;;5045786;28;20032;-58
2023/04/23 13:19:41;;;;;;;6.82;3.60;;;;;;;;;;5064910;28;20020;-60
2023/04/23 13:22:06;;;;;;;5.50;3.37;;;;;;;;;;5064820;28;20016;-58
2023/04/23 13:24:31;;;;;;;11.53;3.73;;;;;;;;;;5065445;28;20905;-59
2023/04/23 13:26:57;;;;;;;7.25;3.90;;;;;;;;;;5064810;28;20315;-59
2023/04/23 13:29:22;;;;;;;6.87;4.10;;;;;;;;;;5065056;28;20506;-60
2023/04/23 13:31:48;;;;;;;4.90;3.60;;;;;;;;;;5064635;28;20328;-59
2023/04/23 13:34:13;;;;;;;12.37;3.80;;;;;;;;;;5064952;28;20387;-59
2023/04/23 13:36:41;;;;;;;6.67;3.70;;;;;;;;;;5064977;28;20592;-59
2023/04/23 13:39:07;;;;;;;15.10;4.17;;;;;;;;;;5065080;28;20709;-59
2023/04/23 13:41:33;;;;;;;6.65;3.08;;;;;;;;;;5064830;28;20253;-59
2023/04/23 13:43:58;;;;;;;4.97;3.42;;;;;;;;;;5065277;28;20027;-60
2023/04/23 13:46:24;;;;;;;6.28;3.70;;;;;;;;;;5064670;28;20351;-60
2023/04/23 13:48:49;;;;;;;7.95;3.90;;;;;;;;;;5064723;28;20031;-60
2023/04/23 13:51:14;;;;;;;7.73;4.63;;;;;;;;;;5064642;28;20020;-60
2023/04/23 13:53:39;;;;;;;14.90;3.75;;;;;;;;;;5065150;28;21000;-59
2023/04/23 13:56:05;;;;;;;8.97;6.00;;;;;;;;;;5064443;28;20086;-58
2023/04/23 13:58:30;;;;;;;9.68;4.32;;;;;;;;;;5065126;28;20316;-59
2023/04/23 14:00:55;;;;;;;5.93;3.73;;;;;;;;;;5064531;28;20040;-59
2023/04/23 14:03:21;;;;;;;38.22;19.67;;;;;;;;;;5064785;28;20725;-59
2023/04/23 14:05:46;;;;;;;11.68;4.68;;;;;;;;;;5064418;28;20395;-60
2023/04/23 14:08:11;;;;;;;11.52;7.22;;;;;;;;;;5065304;28;20027;-56
2023/04/23 14:10:37;;;;;;;18.15;12.57;;;;;;;;;;5068840;28;20524;-59
2023/04/23 14:13:03;;;;;;;10.52;5.22;;;;;;;;;;5068817;28;20040;-59
2023/04/23 14:15:28;;;;;;;8.90;4.70;;;;;;;;;;5068690;28;20460;-58
2023/04/23 14:17:55;;;;;;;8.35;4.35;;;;;;;;;;5068536;28;20036;-60
2023/04/23 14:20:20;;;;;;;7.97;4.25;;;;;;;;;;5069260;28;20021;-59
2023/04/23 14:22:50;;;;;;;4.22;3.47;;;;;;;;;;5069004;28;20066;-60